CSN1007 ZSSS-ZYCC
Flight info
| Callsign | CSN1007 |
|---|---|
| Flight time | 2h 12m |
| Altitude | 34100 |
| Route | PIKAS G330 PIMOL/K0887S1040 A593 LAGAL/K0889S1010 W178 RUXEL DCT GURIL DCT MABEB DCT XDX DCT URBAD W172 IGDEG W173 NIXEP W8 DOBGA W202 UDETI A588 LEMOT |
| Aircraft | B738/M-SDE2E3FGHIRWXY/LB1 |
Departure
| Time | 2026-04-29 07:21 |
|---|---|
| Airport | Shanghai Hongqiao International Airport (ZSSS) |
Arrival
| Time | 2026-04-29 09:33 |
|---|---|
| Airport | Changchun Longjia International Airport (ZYCC) |
| Time | Latitude | Longitude | Altitude | Speed | Heading |
|---|---|---|---|---|---|
| 2026-04-29 06:49 | 31.18655 | 121.34111 | 16 ft | 0 kts | 88° |
| 2026-04-29 07:14 | 31.18654 | 121.34097 | 16 ft | 2 kts | 87° |
| 2026-04-29 07:14 | 31.18654 | 121.34081 | 16 ft | 2 kts | 88° |
| 2026-04-29 07:14 | 31.18653 | 121.34063 | 16 ft | 2 kts | 87° |
| 2026-04-29 07:15 | 31.18656 | 121.34045 | 16 ft | 2 kts | 121° |
| 2026-04-29 07:15 | 31.18667 | 121.34032 | 16 ft | 2 kts | 148° |
| 2026-04-29 07:15 | 31.18680 | 121.34027 | 16 ft | 1 kts | 173° |
| 2026-04-29 07:15 | 31.18686 | 121.34026 | 16 ft | 1 kts | 180° |
| 2026-04-29 07:16 | 31.18688 | 121.34026 | 16 ft | 0 kts | 179° |
| 2026-04-29 07:17 | 31.18682 | 121.34027 | 16 ft | 1 kts | 179° |
| 2026-04-29 07:17 | 31.18664 | 121.34027 | 16 ft | 5 kts | 178° |
| 2026-04-29 07:18 | 31.18610 | 121.34029 | 16 ft | 10 kts | 178° |
| 2026-04-29 07:18 | 31.18520 | 121.34036 | 16 ft | 15 kts | 177° |
| 2026-04-29 07:18 | 31.18432 | 121.34032 | 17 ft | 9 kts | 210° |
| 2026-04-29 07:18 | 31.18400 | 121.33944 | 18 ft | 14 kts | 244° |
| 2026-04-29 07:19 | 31.18362 | 121.33810 | 16 ft | 20 kts | 269° |
| 2026-04-29 07:19 | 31.18374 | 121.33713 | 17 ft | 9 kts | 330° |
| 2026-04-29 07:19 | 31.18402 | 121.33704 | 17 ft | 0 kts | 355° |
| 2026-04-29 07:20 | 31.18407 | 121.33704 | 17 ft | 3 kts | 355° |
| 2026-04-29 07:20 | 31.18617 | 121.33695 | 16 ft | 67 kts | 359° |
| 2026-04-29 07:20 | 31.19340 | 121.33656 | 13 ft | 136 kts | 357° |
| 2026-04-29 07:20 | 31.20443 | 121.33543 | 271 ft | 170 kts | 352° |
| 2026-04-29 07:21 | 31.21543 | 121.33383 | 1323 ft | 157 kts | 360° |
| 2026-04-29 07:21 | 31.22578 | 121.33107 | 2052 ft | 162 kts | 337° |
| 2026-04-29 07:21 | 31.23524 | 121.32223 | 2423 ft | 183 kts | 325° |
| 2026-04-29 07:21 | 31.24523 | 121.31254 | 2863 ft | 193 kts | 329° |
| 2026-04-29 07:22 | 31.25648 | 121.30302 | 3306 ft | 205 kts | 331° |
| 2026-04-29 07:22 | 31.26846 | 121.29308 | 3708 ft | 221 kts | 329° |
| 2026-04-29 07:22 | 31.28147 | 121.28207 | 4126 ft | 240 kts | 328° |
| 2026-04-29 07:22 | 31.29525 | 121.27019 | 4736 ft | 251 kts | 327° |
| 2026-04-29 07:23 | 31.30948 | 121.25793 | 4926 ft | 260 kts | 327° |
| 2026-04-29 07:23 | 31.32411 | 121.24535 | 4930 ft | 260 kts | 326° |
| 2026-04-29 07:23 | 31.33867 | 121.23282 | 4933 ft | 259 kts | 327° |
| 2026-04-29 07:23 | 31.35315 | 121.22041 | 4931 ft | 259 kts | 327° |
| 2026-04-29 07:24 | 31.36788 | 121.20778 | 4932 ft | 259 kts | 327° |
| 2026-04-29 07:24 | 31.38235 | 121.19539 | 4937 ft | 259 kts | 327° |
| 2026-04-29 07:24 | 31.39691 | 121.18282 | 4936 ft | 260 kts | 325° |
| 2026-04-29 07:24 | 31.41050 | 121.16848 | 5018 ft | 273 kts | 317° |
| 2026-04-29 07:25 | 31.42316 | 121.15219 | 6020 ft | 267 kts | 314° |
| 2026-04-29 07:25 | 31.43514 | 121.13623 | 6930 ft | 264 kts | 313° |
| 2026-04-29 07:25 | 31.44783 | 121.12021 | 7589 ft | 270 kts | 317° |
| 2026-04-29 07:25 | 31.46316 | 121.10744 | 8268 ft | 275 kts | 333° |
| 2026-04-29 07:26 | 31.48070 | 121.09841 | 8979 ft | 279 kts | 336° |
| 2026-04-29 07:26 | 31.49890 | 121.08993 | 9655 ft | 283 kts | 335° |
| 2026-04-29 07:26 | 31.51715 | 121.08115 | 10256 ft | 289 kts | 333° |
| 2026-04-29 07:26 | 31.53607 | 121.07138 | 10725 ft | 301 kts | 331° |
| 2026-04-29 07:27 | 31.55541 | 121.06091 | 11160 ft | 313 kts | 332° |
| 2026-04-29 07:27 | 31.57549 | 121.04997 | 11574 ft | 325 kts | 331° |
| 2026-04-29 07:27 | 31.59656 | 121.03857 | 11914 ft | 339 kts | 331° |
| 2026-04-29 07:27 | 31.61846 | 121.02699 | 12202 ft | 354 kts | 332° |
| 2026-04-29 07:28 | 31.64124 | 121.01490 | 12532 ft | 367 kts | 331° |
| 2026-04-29 07:28 | 31.66509 | 121.00218 | 12810 ft | 381 kts | 331° |
| 2026-04-29 07:28 | 31.68940 | 120.98921 | 13038 ft | 395 kts | 332° |
| 2026-04-29 07:28 | 31.71512 | 120.97553 | 13203 ft | 410 kts | 331° |
| 2026-04-29 07:29 | 31.74125 | 120.96156 | 13524 ft | 419 kts | 331° |
| 2026-04-29 07:29 | 31.76789 | 120.94731 | 14128 ft | 420 kts | 331° |
| 2026-04-29 07:29 | 31.79428 | 120.93327 | 14965 ft | 415 kts | 331° |
| 2026-04-29 07:29 | 31.82051 | 120.91937 | 15646 ft | 414 kts | 330° |
| 2026-04-29 07:30 | 31.84687 | 120.90532 | 16157 ft | 416 kts | 330° |
| 2026-04-29 07:30 | 31.87330 | 120.89127 | 16626 ft | 420 kts | 330° |
| 2026-04-29 07:30 | 31.90011 | 120.87712 | 17093 ft | 424 kts | 330° |
| 2026-04-29 07:31 | 31.95344 | 120.84836 | 18221 ft | 423 kts | 328° |
| 2026-04-29 07:31 | 31.98023 | 120.83382 | 18445 ft | 433 kts | 329° |
| 2026-04-29 07:31 | 32.00790 | 120.81879 | 18831 ft | 437 kts | 329° |
| 2026-04-29 07:31 | 32.03555 | 120.80383 | 19297 ft | 438 kts | 328° |
| 2026-04-29 07:32 | 32.06266 | 120.78803 | 19735 ft | 436 kts | 324° |
| 2026-04-29 07:32 | 32.08772 | 120.76826 | 20031 ft | 433 kts | 314° |
| 2026-04-29 07:32 | 32.10964 | 120.74404 | 20518 ft | 427 kts | 306° |
| 2026-04-29 07:32 | 32.12832 | 120.71716 | 20754 ft | 427 kts | 299° |
| 2026-04-29 07:33 | 32.14479 | 120.68814 | 21181 ft | 426 kts | 296° |
| 2026-04-29 07:33 | 32.15975 | 120.65833 | 21689 ft | 421 kts | 291° |
| 2026-04-29 07:33 | 32.17127 | 120.62664 | 21950 ft | 419 kts | 283° |
| 2026-04-29 07:33 | 32.17804 | 120.59377 | 22336 ft | 415 kts | 275° |
| 2026-04-29 07:34 | 32.18202 | 120.56016 | 22778 ft | 413 kts | 272° |
| 2026-04-29 07:34 | 32.18510 | 120.52663 | 23237 ft | 413 kts | 270° |
| 2026-04-29 07:34 | 32.18778 | 120.49294 | 23583 ft | 415 kts | 270° |
| 2026-04-29 07:34 | 32.19041 | 120.45890 | 24016 ft | 415 kts | 270° |
| 2026-04-29 07:35 | 32.19303 | 120.42519 | 24386 ft | 417 kts | 270° |
| 2026-04-29 07:35 | 32.19553 | 120.39123 | 24749 ft | 419 kts | 269° |
| 2026-04-29 07:35 | 32.19820 | 120.35680 | 25048 ft | 423 kts | 271° |
| 2026-04-29 07:35 | 32.20114 | 120.32215 | 25405 ft | 425 kts | 270° |
| 2026-04-29 07:36 | 32.20400 | 120.28773 | 25806 ft | 426 kts | 270° |
| 2026-04-29 07:36 | 32.20681 | 120.25253 | 26107 ft | 429 kts | 270° |
| 2026-04-29 07:36 | 32.20963 | 120.21764 | 26339 ft | 433 kts | 269° |
| 2026-04-29 07:36 | 32.21254 | 120.18201 | 26728 ft | 434 kts | 269° |
| 2026-04-29 07:37 | 32.21549 | 120.14709 | 27150 ft | 432 kts | 269° |
| 2026-04-29 07:37 | 32.21842 | 120.11169 | 27684 ft | 429 kts | 270° |
| 2026-04-29 07:37 | 32.22136 | 120.07747 | 28297 ft | 423 kts | 269° |
| 2026-04-29 07:37 | 32.22418 | 120.04353 | 29056 ft | 413 kts | 268° |
| 2026-04-29 07:38 | 32.22685 | 120.01020 | 29763 ft | 405 kts | 268° |
| 2026-04-29 07:38 | 32.22940 | 119.97737 | 30383 ft | 399 kts | 267° |
| 2026-04-29 07:38 | 32.23173 | 119.94505 | 30797 ft | 398 kts | 267° |
| 2026-04-29 07:38 | 32.23414 | 119.91240 | 30947 ft | 402 kts | 267° |
| 2026-04-29 07:39 | 32.23660 | 119.87943 | 31198 ft | 405 kts | 267° |
| 2026-04-29 07:39 | 32.24045 | 119.84641 | 31330 ft | 415 kts | 272° |
| 2026-04-29 07:39 | 32.24743 | 119.81301 | 31546 ft | 425 kts | 278° |
| 2026-04-29 07:39 | 32.25794 | 119.78012 | 32026 ft | 430 kts | 284° |
| 2026-04-29 07:40 | 32.27176 | 119.74854 | 32464 ft | 436 kts | 289° |
| 2026-04-29 07:40 | 32.28857 | 119.71861 | 32766 ft | 445 kts | 295° |
| 2026-04-29 07:40 | 32.30780 | 119.69111 | 32983 ft | 456 kts | 301° |
| 2026-04-29 07:40 | 32.33053 | 119.66475 | 33279 ft | 466 kts | 307° |
| 2026-04-29 07:41 | 32.35611 | 119.64070 | 33604 ft | 475 kts | 314° |
| 2026-04-29 07:41 | 32.38408 | 119.61932 | 34022 ft | 479 kts | 318° |
| 2026-04-29 07:41 | 32.41336 | 119.59952 | 34265 ft | 482 kts | 319° |
| 2026-04-29 07:41 | 32.44225 | 119.58026 | 34263 ft | 477 kts | 319° |
| 2026-04-29 07:42 | 32.49935 | 119.53957 | 34268 ft | 474 kts | 316° |
| 2026-04-29 07:42 | 32.55395 | 119.49631 | 34264 ft | 471 kts | 314° |
| 2026-04-29 07:43 | 32.60716 | 119.45176 | 34267 ft | 467 kts | 313° |
| 2026-04-29 07:43 | 32.65979 | 119.40646 | 34265 ft | 467 kts | 312° |
| 2026-04-29 07:44 | 32.71234 | 119.36097 | 34264 ft | 466 kts | 312° |
| 2026-04-29 07:44 | 32.76498 | 119.31535 | 34265 ft | 468 kts | 311° |
| 2026-04-29 07:45 | 32.81687 | 119.27032 | 34259 ft | 462 kts | 311° |
| 2026-04-29 07:45 | 32.86858 | 119.22512 | 34259 ft | 462 kts | 311° |
| 2026-04-29 07:46 | 32.92053 | 119.17958 | 34254 ft | 465 kts | 311° |
| 2026-04-29 07:46 | 32.97300 | 119.13379 | 34259 ft | 465 kts | 311° |
| 2026-04-29 07:47 | 33.02507 | 119.08903 | 34256 ft | 463 kts | 311° |
| 2026-04-29 07:47 | 33.07799 | 119.04346 | 34263 ft | 465 kts | 311° |
| 2026-04-29 07:48 | 33.13028 | 118.99834 | 34255 ft | 465 kts | 311° |
| 2026-04-29 07:48 | 33.18300 | 118.95270 | 34254 ft | 465 kts | 311° |
| 2026-04-29 07:49 | 33.23521 | 118.90745 | 34260 ft | 463 kts | 311° |
| 2026-04-29 07:49 | 33.28685 | 118.86243 | 34252 ft | 461 kts | 311° |
| 2026-04-29 07:50 | 33.33892 | 118.81702 | 34255 ft | 461 kts | 311° |
| 2026-04-29 07:50 | 33.39106 | 118.77173 | 34264 ft | 467 kts | 312° |
| 2026-04-29 07:51 | 33.44778 | 118.73148 | 34250 ft | 487 kts | 327° |
| 2026-04-29 07:51 | 33.48142 | 118.71985 | 34262 ft | 509 kts | 340° |
| 2026-04-29 07:51 | 33.51712 | 118.71609 | 34262 ft | 524 kts | 351° |
| 2026-04-29 07:52 | 33.59077 | 118.72292 | 34260 ft | 534 kts | 358° |
| 2026-04-29 07:52 | 33.66450 | 118.73462 | 34255 ft | 535 kts | 0° |
| 2026-04-29 07:53 | 33.73877 | 118.74732 | 34268 ft | 541 kts | 0° |
| 2026-04-29 07:53 | 33.77611 | 118.75372 | 34400 ft | 543 kts | 0° |
| 2026-04-29 07:53 | 33.81361 | 118.76009 | 34547 ft | 545 kts | 360° |
| 2026-04-29 07:54 | 33.85089 | 118.76633 | 34888 ft | 543 kts | 0° |
| 2026-04-29 07:54 | 33.88766 | 118.77245 | 35203 ft | 541 kts | 0° |
| 2026-04-29 07:54 | 33.96183 | 118.78454 | 35265 ft | 537 kts | 359° |
| 2026-04-29 07:55 | 34.03602 | 118.79636 | 35255 ft | 539 kts | 359° |
| 2026-04-29 07:55 | 34.11079 | 118.80821 | 35254 ft | 537 kts | 359° |
| 2026-04-29 07:56 | 34.18458 | 118.81993 | 35256 ft | 536 kts | 359° |
| 2026-04-29 07:56 | 34.25745 | 118.83157 | 35256 ft | 537 kts | 359° |
| 2026-04-29 07:57 | 34.33175 | 118.84360 | 35251 ft | 539 kts | 359° |
| 2026-04-29 07:57 | 34.40568 | 118.85571 | 35256 ft | 536 kts | 0° |
| 2026-04-29 07:58 | 34.47950 | 118.86767 | 35257 ft | 537 kts | 359° |
| 2026-04-29 07:58 | 34.55323 | 118.88338 | 35256 ft | 546 kts | 8° |
| 2026-04-29 07:59 | 34.58959 | 118.89845 | 35250 ft | 553 kts | 19° |
| 2026-04-29 07:59 | 34.62360 | 118.92062 | 35257 ft | 560 kts | 29° |
| 2026-04-29 07:59 | 34.68650 | 118.97644 | 35254 ft | 564 kts | 36° |
| 2026-04-29 08:00 | 34.74715 | 119.03736 | 35250 ft | 565 kts | 38° |
| 2026-04-29 08:00 | 34.80678 | 119.09896 | 35256 ft | 564 kts | 37° |
| 2026-04-29 08:01 | 34.86658 | 119.16028 | 35254 ft | 564 kts | 37° |
| 2026-04-29 08:01 | 34.92668 | 119.22128 | 35257 ft | 565 kts | 36° |
| 2026-04-29 08:02 | 34.98705 | 119.28234 | 35256 ft | 563 kts | 36° |
| 2026-04-29 08:02 | 35.04668 | 119.34239 | 35252 ft | 563 kts | 36° |
| 2026-04-29 08:03 | 35.10712 | 119.40332 | 35243 ft | 564 kts | 36° |
| 2026-04-29 08:03 | 35.16702 | 119.46397 | 35240 ft | 563 kts | 37° |
| 2026-04-29 08:04 | 35.22733 | 119.52531 | 35241 ft | 566 kts | 37° |
| 2026-04-29 08:04 | 35.28761 | 119.58687 | 35238 ft | 564 kts | 36° |
| 2026-04-29 08:05 | 35.34779 | 119.64838 | 35237 ft | 564 kts | 37° |
| 2026-04-29 08:05 | 35.40782 | 119.70996 | 35236 ft | 565 kts | 37° |
| 2026-04-29 08:06 | 35.46814 | 119.77164 | 35231 ft | 565 kts | 37° |
| 2026-04-29 08:06 | 35.52876 | 119.83279 | 35236 ft | 564 kts | 36° |
| 2026-04-29 08:07 | 35.58922 | 119.89344 | 35226 ft | 563 kts | 37° |
| 2026-04-29 08:07 | 35.64959 | 119.95430 | 35226 ft | 562 kts | 36° |
| 2026-04-29 08:08 | 35.71014 | 120.01570 | 35223 ft | 564 kts | 37° |
| 2026-04-29 08:08 | 35.77053 | 120.07709 | 35221 ft | 562 kts | 36° |
| 2026-04-29 08:09 | 35.83042 | 120.13812 | 35221 ft | 564 kts | 37° |
| 2026-04-29 08:09 | 35.89056 | 120.19958 | 35222 ft | 563 kts | 36° |
| 2026-04-29 08:10 | 35.95078 | 120.26086 | 35222 ft | 563 kts | 36° |
| 2026-04-29 08:10 | 36.00852 | 120.32610 | 35216 ft | 566 kts | 44° |
| 2026-04-29 08:11 | 36.06180 | 120.39762 | 35215 ft | 566 kts | 45° |
| 2026-04-29 08:11 | 36.09029 | 120.43162 | 35207 ft | 564 kts | 34° |
| 2026-04-29 08:11 | 36.12274 | 120.45744 | 35219 ft | 552 kts | 19° |
| 2026-04-29 08:12 | 36.15817 | 120.47353 | 35224 ft | 540 kts | 6° |
| 2026-04-29 08:12 | 36.19441 | 120.48178 | 35224 ft | 529 kts | 357° |
| 2026-04-29 08:12 | 36.26747 | 120.48914 | 35215 ft | 522 kts | 353° |
| 2026-04-29 08:13 | 36.34032 | 120.49490 | 35213 ft | 527 kts | 355° |
| 2026-04-29 08:13 | 36.41272 | 120.51102 | 35211 ft | 538 kts | 7° |
| 2026-04-29 08:14 | 36.48289 | 120.53925 | 35209 ft | 543 kts | 13° |
| 2026-04-29 08:14 | 36.55520 | 120.56628 | 35211 ft | 533 kts | 4° |
| 2026-04-29 08:15 | 36.62780 | 120.58212 | 35204 ft | 529 kts | 359° |
| 2026-04-29 08:15 | 36.70118 | 120.59392 | 35199 ft | 526 kts | 358° |
| 2026-04-29 08:16 | 36.77359 | 120.60517 | 35197 ft | 526 kts | 358° |
| 2026-04-29 08:16 | 36.84665 | 120.61705 | 35197 ft | 528 kts | 358° |
| 2026-04-29 08:17 | 36.91917 | 120.62950 | 35187 ft | 529 kts | 359° |
| 2026-04-29 08:17 | 36.99291 | 120.64268 | 35198 ft | 531 kts | 359° |
| 2026-04-29 08:18 | 37.06564 | 120.65646 | 35197 ft | 529 kts | 0° |
| 2026-04-29 08:18 | 37.13892 | 120.67046 | 35198 ft | 529 kts | 0° |
| 2026-04-29 08:19 | 37.21136 | 120.68413 | 35200 ft | 530 kts | 0° |
| 2026-04-29 08:19 | 37.28485 | 120.69785 | 35202 ft | 531 kts | 0° |
| 2026-04-29 08:20 | 37.35786 | 120.71146 | 35203 ft | 531 kts | 0° |
| 2026-04-29 08:20 | 37.43148 | 120.72525 | 35201 ft | 527 kts | 0° |
| 2026-04-29 08:21 | 37.50433 | 120.73891 | 35202 ft | 530 kts | 0° |
| 2026-04-29 08:21 | 37.57746 | 120.75279 | 35204 ft | 530 kts | 360° |
| 2026-04-29 08:22 | 37.65037 | 120.76466 | 35200 ft | 526 kts | 356° |
| 2026-04-29 08:22 | 37.72298 | 120.77290 | 35201 ft | 525 kts | 356° |
| 2026-04-29 08:23 | 37.79565 | 120.78048 | 35204 ft | 523 kts | 356° |
| 2026-04-29 08:23 | 37.86821 | 120.78838 | 35203 ft | 523 kts | 356° |
| 2026-04-29 08:24 | 37.94115 | 120.79731 | 35204 ft | 529 kts | 359° |
| 2026-04-29 08:24 | 38.01351 | 120.81825 | 35206 ft | 541 kts | 13° |
| 2026-04-29 08:25 | 38.08247 | 120.85905 | 35212 ft | 551 kts | 23° |
| 2026-04-29 08:25 | 38.14866 | 120.90775 | 35208 ft | 550 kts | 26° |
| 2026-04-29 08:26 | 38.21161 | 120.96316 | 35208 ft | 557 kts | 40° |
| 2026-04-29 08:26 | 38.26215 | 121.03825 | 35210 ft | 560 kts | 54° |
| 2026-04-29 08:27 | 38.30191 | 121.12277 | 35208 ft | 561 kts | 64° |
| 2026-04-29 08:27 | 38.33346 | 121.21322 | 35203 ft | 557 kts | 70° |
| 2026-04-29 08:28 | 38.36244 | 121.30402 | 35203 ft | 558 kts | 70° |
| 2026-04-29 08:28 | 38.39222 | 121.39534 | 35202 ft | 559 kts | 69° |
| 2026-04-29 08:29 | 38.42308 | 121.48633 | 35202 ft | 560 kts | 67° |
| 2026-04-29 08:29 | 38.45731 | 121.57532 | 35201 ft | 561 kts | 62° |
| 2026-04-29 08:30 | 38.51189 | 121.70700 | 35201 ft | 561 kts | 63° |
| 2026-04-29 08:31 | 38.54809 | 121.79554 | 35199 ft | 561 kts | 63° |
| 2026-04-29 08:31 | 38.58343 | 121.88412 | 35198 ft | 563 kts | 63° |
| 2026-04-29 08:32 | 38.61861 | 121.97305 | 35195 ft | 562 kts | 64° |
| 2026-04-29 08:32 | 38.65356 | 122.06152 | 35198 ft | 563 kts | 63° |
| 2026-04-29 08:33 | 38.69423 | 122.14619 | 35189 ft | 561 kts | 47° |
| 2026-04-29 08:33 | 38.72170 | 122.18121 | 35195 ft | 556 kts | 35° |
| 2026-04-29 08:33 | 38.75289 | 122.21064 | 35206 ft | 554 kts | 28° |
| 2026-04-29 08:34 | 38.81732 | 122.26290 | 35193 ft | 546 kts | 24° |
| 2026-04-29 08:34 | 38.88290 | 122.31258 | 35196 ft | 547 kts | 25° |
| 2026-04-29 08:35 | 38.94808 | 122.36253 | 35195 ft | 547 kts | 24° |
| 2026-04-29 08:35 | 39.01302 | 122.41350 | 35192 ft | 549 kts | 25° |
| 2026-04-29 08:36 | 39.07785 | 122.46506 | 35190 ft | 548 kts | 26° |
| 2026-04-29 08:36 | 39.14260 | 122.51678 | 35179 ft | 544 kts | 26° |
| 2026-04-29 08:37 | 39.20661 | 122.56795 | 35173 ft | 544 kts | 26° |
| 2026-04-29 08:37 | 39.27100 | 122.61945 | 35168 ft | 542 kts | 25° |
| 2026-04-29 08:38 | 39.33618 | 122.66851 | 35171 ft | 538 kts | 23° |
| 2026-04-29 08:38 | 39.40187 | 122.71432 | 35166 ft | 535 kts | 22° |
| 2026-04-29 08:39 | 39.46779 | 122.76012 | 35162 ft | 536 kts | 22° |
| 2026-04-29 08:39 | 39.53266 | 122.80611 | 35160 ft | 532 kts | 22° |
| 2026-04-29 08:40 | 39.59766 | 122.85268 | 35152 ft | 533 kts | 23° |
| 2026-04-29 08:40 | 39.66264 | 122.89958 | 35151 ft | 533 kts | 24° |
| 2026-04-29 08:41 | 39.72689 | 122.94607 | 35140 ft | 528 kts | 23° |
| 2026-04-29 08:41 | 39.79104 | 122.99234 | 35134 ft | 530 kts | 23° |
| 2026-04-29 08:42 | 39.85528 | 123.03881 | 35131 ft | 527 kts | 23° |
| 2026-04-29 08:42 | 39.88729 | 123.06198 | 35331 ft | 529 kts | 24° |
| 2026-04-29 08:42 | 39.91951 | 123.08531 | 35170 ft | 528 kts | 23° |
| 2026-04-29 08:43 | 39.98312 | 123.13152 | 35127 ft | 522 kts | 23° |
| 2026-04-29 08:43 | 40.04644 | 123.17757 | 35117 ft | 521 kts | 24° |
| 2026-04-29 08:43 | 40.07798 | 123.20052 | 34953 ft | 523 kts | 23° |
| 2026-04-29 08:44 | 40.10982 | 123.22354 | 35083 ft | 521 kts | 23° |
| 2026-04-29 08:44 | 40.17363 | 123.26940 | 35124 ft | 518 kts | 24° |
| 2026-04-29 08:45 | 40.23704 | 123.31512 | 35132 ft | 519 kts | 23° |
| 2026-04-29 08:45 | 40.30065 | 123.36113 | 35131 ft | 515 kts | 24° |
| 2026-04-29 08:46 | 40.36275 | 123.40614 | 35112 ft | 513 kts | 24° |
| 2026-04-29 08:46 | 40.42593 | 123.45204 | 35152 ft | 515 kts | 24° |
| 2026-04-29 08:47 | 40.48833 | 123.49757 | 35143 ft | 512 kts | 25° |
| 2026-04-29 08:47 | 40.55032 | 123.54282 | 35143 ft | 511 kts | 24° |
| 2026-04-29 08:48 | 40.61273 | 123.58843 | 35131 ft | 510 kts | 24° |
| 2026-04-29 08:48 | 40.67481 | 123.63390 | 35152 ft | 508 kts | 25° |
| 2026-04-29 08:49 | 40.73625 | 123.67899 | 35147 ft | 505 kts | 26° |
| 2026-04-29 08:49 | 40.79821 | 123.72448 | 35144 ft | 506 kts | 25° |
| 2026-04-29 08:50 | 40.85947 | 123.76957 | 35121 ft | 503 kts | 25° |
| 2026-04-29 08:50 | 40.92124 | 123.81379 | 35143 ft | 501 kts | 25° |
| 2026-04-29 08:51 | 40.98261 | 123.85745 | 35114 ft | 498 kts | 25° |
| 2026-04-29 08:51 | 41.04346 | 123.90080 | 35120 ft | 496 kts | 25° |
| 2026-04-29 08:52 | 41.10421 | 123.94434 | 35114 ft | 492 kts | 25° |
| 2026-04-29 08:52 | 41.16438 | 123.98762 | 35141 ft | 495 kts | 25° |
| 2026-04-29 08:53 | 41.22433 | 124.03079 | 35146 ft | 488 kts | 25° |
| 2026-04-29 08:53 | 41.28383 | 124.07380 | 35134 ft | 486 kts | 25° |
| 2026-04-29 08:54 | 41.34280 | 124.11656 | 35128 ft | 480 kts | 25° |
| 2026-04-29 08:54 | 41.40154 | 124.15921 | 35135 ft | 483 kts | 25° |
| 2026-04-29 08:55 | 41.46001 | 124.20216 | 35147 ft | 478 kts | 26° |
| 2026-04-29 08:55 | 41.51789 | 124.24579 | 35145 ft | 480 kts | 26° |
| 2026-04-29 08:56 | 41.57543 | 124.28938 | 35158 ft | 473 kts | 26° |
| 2026-04-29 08:56 | 41.63236 | 124.33264 | 35134 ft | 470 kts | 26° |
| 2026-04-29 08:57 | 41.68919 | 124.37582 | 35148 ft | 469 kts | 26° |
| 2026-04-29 08:57 | 41.74562 | 124.41866 | 35131 ft | 468 kts | 26° |
| 2026-04-29 08:58 | 41.80225 | 124.46175 | 35110 ft | 467 kts | 27° |
| 2026-04-29 08:58 | 41.85889 | 124.50490 | 35148 ft | 468 kts | 26° |
| 2026-04-29 08:59 | 41.91533 | 124.54789 | 35129 ft | 465 kts | 27° |
| 2026-04-29 08:59 | 41.97181 | 124.59109 | 35130 ft | 465 kts | 27° |
| 2026-04-29 09:00 | 42.02836 | 124.63253 | 35126 ft | 463 kts | 25° |
| 2026-04-29 09:00 | 42.08577 | 124.67149 | 35121 ft | 463 kts | 25° |
| 2026-04-29 09:01 | 42.14347 | 124.71026 | 35127 ft | 463 kts | 25° |
| 2026-04-29 09:01 | 42.20067 | 124.74908 | 35126 ft | 463 kts | 25° |
| 2026-04-29 09:02 | 42.25811 | 124.78840 | 35119 ft | 462 kts | 25° |
| 2026-04-29 09:02 | 42.31535 | 124.82786 | 35119 ft | 463 kts | 25° |
| 2026-04-29 09:03 | 42.37288 | 124.86764 | 35125 ft | 465 kts | 25° |
| 2026-04-29 09:03 | 42.42909 | 124.90675 | 35120 ft | 442 kts | 25° |
| 2026-04-29 09:04 | 42.48282 | 124.94415 | 35127 ft | 438 kts | 24° |
| 2026-04-29 09:04 | 42.53728 | 124.98193 | 35119 ft | 440 kts | 24° |
| 2026-04-29 09:05 | 42.59162 | 125.01973 | 35110 ft | 438 kts | 24° |
| 2026-04-29 09:05 | 42.64600 | 125.05770 | 35114 ft | 440 kts | 24° |
| 2026-04-29 09:06 | 42.69998 | 125.09551 | 35102 ft | 438 kts | 24° |
| 2026-04-29 09:06 | 42.75393 | 125.13338 | 35112 ft | 438 kts | 24° |
| 2026-04-29 09:07 | 42.80698 | 125.17411 | 34852 ft | 436 kts | 33° |
| 2026-04-29 09:07 | 42.82972 | 125.20046 | 34631 ft | 433 kts | 43° |
| 2026-04-29 09:07 | 42.84889 | 125.23147 | 34244 ft | 430 kts | 50° |
| 2026-04-29 09:07 | 42.86642 | 125.26478 | 33734 ft | 429 kts | 52° |
| 2026-04-29 09:08 | 42.88284 | 125.29839 | 33213 ft | 427 kts | 53° |
| 2026-04-29 09:08 | 42.89890 | 125.33182 | 32682 ft | 425 kts | 52° |
| 2026-04-29 09:08 | 42.91695 | 125.36291 | 32156 ft | 418 kts | 41° |
| 2026-04-29 09:08 | 42.93933 | 125.38721 | 31661 ft | 408 kts | 28° |
| 2026-04-29 09:09 | 42.96378 | 125.40626 | 31159 ft | 403 kts | 24° |
| 2026-04-29 09:09 | 42.98879 | 125.42339 | 30660 ft | 399 kts | 22° |
| 2026-04-29 09:09 | 43.01377 | 125.43980 | 30141 ft | 396 kts | 21° |
| 2026-04-29 09:09 | 43.03840 | 125.45600 | 29647 ft | 393 kts | 22° |
| 2026-04-29 09:10 | 43.06280 | 125.47229 | 29151 ft | 390 kts | 22° |
| 2026-04-29 09:10 | 43.08700 | 125.48874 | 28657 ft | 387 kts | 23° |
| 2026-04-29 09:10 | 43.11097 | 125.50530 | 28171 ft | 385 kts | 23° |
| 2026-04-29 09:10 | 43.13445 | 125.52166 | 27689 ft | 382 kts | 23° |
| 2026-04-29 09:11 | 43.15786 | 125.53805 | 27213 ft | 379 kts | 24° |
| 2026-04-29 09:11 | 43.18122 | 125.55448 | 26733 ft | 376 kts | 24° |
| 2026-04-29 09:11 | 43.20454 | 125.57091 | 26249 ft | 373 kts | 24° |
| 2026-04-29 09:11 | 43.22720 | 125.58690 | 25780 ft | 371 kts | 24° |
| 2026-04-29 09:12 | 43.25009 | 125.60307 | 25309 ft | 368 kts | 24° |
| 2026-04-29 09:12 | 43.27281 | 125.61916 | 24827 ft | 365 kts | 24° |
| 2026-04-29 09:12 | 43.29507 | 125.63492 | 24361 ft | 362 kts | 24° |
| 2026-04-29 09:12 | 43.31735 | 125.65070 | 23900 ft | 359 kts | 24° |
| 2026-04-29 09:13 | 43.33943 | 125.66637 | 23441 ft | 356 kts | 25° |
| 2026-04-29 09:13 | 43.36143 | 125.68199 | 22978 ft | 353 kts | 25° |
| 2026-04-29 09:13 | 43.38287 | 125.69722 | 22532 ft | 350 kts | 25° |
| 2026-04-29 09:13 | 43.40437 | 125.71252 | 22074 ft | 347 kts | 25° |
| 2026-04-29 09:14 | 43.42583 | 125.72781 | 21625 ft | 344 kts | 25° |
| 2026-04-29 09:14 | 43.44702 | 125.74289 | 21178 ft | 341 kts | 25° |
| 2026-04-29 09:14 | 43.46803 | 125.75785 | 20740 ft | 338 kts | 25° |
| 2026-04-29 09:14 | 43.48877 | 125.77265 | 20302 ft | 336 kts | 25° |
| 2026-04-29 09:15 | 43.50912 | 125.78719 | 19870 ft | 333 kts | 25° |
| 2026-04-29 09:15 | 43.52961 | 125.80184 | 19435 ft | 330 kts | 25° |
| 2026-04-29 09:15 | 43.55000 | 125.81642 | 19006 ft | 328 kts | 25° |
| 2026-04-29 09:15 | 43.57018 | 125.83089 | 18578 ft | 325 kts | 25° |
| 2026-04-29 09:16 | 43.58998 | 125.84510 | 18156 ft | 323 kts | 25° |
| 2026-04-29 09:16 | 43.60976 | 125.85931 | 17737 ft | 320 kts | 25° |
| 2026-04-29 09:16 | 43.62946 | 125.87346 | 17314 ft | 318 kts | 25° |
| 2026-04-29 09:16 | 43.64881 | 125.88737 | 16904 ft | 315 kts | 25° |
| 2026-04-29 09:17 | 43.66837 | 125.90143 | 16483 ft | 312 kts | 25° |
| 2026-04-29 09:17 | 43.68727 | 125.91502 | 16081 ft | 310 kts | 25° |
| 2026-04-29 09:17 | 43.70626 | 125.92868 | 15678 ft | 307 kts | 25° |
| 2026-04-29 09:17 | 43.72528 | 125.94237 | 15272 ft | 304 kts | 25° |
| 2026-04-29 09:18 | 43.74411 | 125.95551 | 14878 ft | 301 kts | 22° |
| 2026-04-29 09:18 | 43.76329 | 125.96551 | 14479 ft | 296 kts | 12° |
| 2026-04-29 09:18 | 43.78346 | 125.96995 | 14078 ft | 292 kts | 3° |
| 2026-04-29 09:18 | 43.80371 | 125.97130 | 13695 ft | 288 kts | 0° |
| 2026-04-29 09:19 | 43.82399 | 125.97182 | 13323 ft | 285 kts | 360° |
| 2026-04-29 09:19 | 43.84381 | 125.97238 | 12936 ft | 283 kts | 0° |
| 2026-04-29 09:19 | 43.86339 | 125.97318 | 12557 ft | 280 kts | 1° |
| 2026-04-29 09:19 | 43.88280 | 125.97415 | 12190 ft | 278 kts | 1° |
| 2026-04-29 09:20 | 43.90208 | 125.97519 | 11829 ft | 275 kts | 1° |
| 2026-04-29 09:20 | 43.92110 | 125.97623 | 11483 ft | 272 kts | 1° |
| 2026-04-29 09:20 | 43.94026 | 125.97728 | 11120 ft | 270 kts | 1° |
| 2026-04-29 09:20 | 43.95896 | 125.97830 | 10811 ft | 265 kts | 1° |
| 2026-04-29 09:21 | 43.97687 | 125.97929 | 10661 ft | 255 kts | 1° |
| 2026-04-29 09:21 | 43.99418 | 125.98023 | 10574 ft | 243 kts | 1° |
| 2026-04-29 09:21 | 44.01084 | 125.98114 | 10499 ft | 231 kts | 1° |
| 2026-04-29 09:21 | 44.02661 | 125.98199 | 10426 ft | 226 kts | 1° |
| 2026-04-29 09:22 | 44.04273 | 125.98428 | 10345 ft | 234 kts | 12° |
| 2026-04-29 09:22 | 44.05706 | 125.99425 | 10118 ft | 239 kts | 39° |
| 2026-04-29 09:22 | 44.06808 | 126.01162 | 9839 ft | 240 kts | 46° |
| 2026-04-29 09:22 | 44.07855 | 126.03027 | 9571 ft | 237 kts | 46° |
| 2026-04-29 09:23 | 44.08898 | 126.04793 | 9308 ft | 237 kts | 44° |
| 2026-04-29 09:23 | 44.09964 | 126.06536 | 9048 ft | 235 kts | 44° |
| 2026-04-29 09:23 | 44.11023 | 126.08252 | 8794 ft | 237 kts | 44° |
| 2026-04-29 09:23 | 44.12106 | 126.10013 | 8528 ft | 236 kts | 44° |
| 2026-04-29 09:24 | 44.13186 | 126.11747 | 8260 ft | 236 kts | 42° |
| 2026-04-29 09:24 | 44.14443 | 126.13168 | 7993 ft | 230 kts | 20° |
| 2026-04-29 09:24 | 44.15969 | 126.13586 | 7761 ft | 225 kts | 352° |
| 2026-04-29 09:24 | 44.17506 | 126.13074 | 7515 ft | 223 kts | 336° |
| 2026-04-29 09:25 | 44.18847 | 126.12006 | 7267 ft | 222 kts | 321° |
| 2026-04-29 09:25 | 44.20001 | 126.10606 | 7030 ft | 222 kts | 317° |
| 2026-04-29 09:25 | 44.21042 | 126.09028 | 6786 ft | 221 kts | 304° |
| 2026-04-29 09:25 | 44.21652 | 126.07078 | 6530 ft | 224 kts | 281° |
| 2026-04-29 09:26 | 44.21585 | 126.04919 | 6276 ft | 226 kts | 257° |
| 2026-04-29 09:26 | 44.20936 | 126.02943 | 6029 ft | 228 kts | 237° |
| 2026-04-29 09:26 | 44.19915 | 126.01215 | 5782 ft | 229 kts | 231° |
| 2026-04-29 09:26 | 44.18860 | 125.99590 | 5532 ft | 227 kts | 232° |
| 2026-04-29 09:27 | 44.17812 | 125.97937 | 5288 ft | 226 kts | 232° |
| 2026-04-29 09:27 | 44.16782 | 125.96274 | 5033 ft | 225 kts | 233° |
| 2026-04-29 09:27 | 44.15783 | 125.94649 | 4804 ft | 221 kts | 233° |
| 2026-04-29 09:27 | 44.14796 | 125.93044 | 4598 ft | 215 kts | 233° |
| 2026-04-29 09:28 | 44.13839 | 125.91492 | 4446 ft | 207 kts | 233° |
| 2026-04-29 09:28 | 44.12916 | 125.89994 | 4262 ft | 200 kts | 233° |
| 2026-04-29 09:28 | 44.12019 | 125.88546 | 4063 ft | 195 kts | 232° |
| 2026-04-29 09:28 | 44.11142 | 125.87142 | 3796 ft | 191 kts | 232° |
| 2026-04-29 09:29 | 44.10293 | 125.85743 | 3582 ft | 184 kts | 233° |
| 2026-04-29 09:29 | 44.08680 | 125.83095 | 3115 ft | 174 kts | 232° |
| 2026-04-29 09:29 | 44.07905 | 125.81850 | 2836 ft | 164 kts | 233° |
| 2026-04-29 09:30 | 44.07197 | 125.80703 | 2677 ft | 147 kts | 232° |
| 2026-04-29 09:30 | 44.06529 | 125.79616 | 2506 ft | 145 kts | 232° |
| 2026-04-29 09:30 | 44.05858 | 125.78554 | 2267 ft | 149 kts | 231° |
| 2026-04-29 09:30 | 44.05179 | 125.77499 | 2059 ft | 145 kts | 233° |
| 2026-04-29 09:31 | 44.04516 | 125.76410 | 1903 ft | 147 kts | 231° |
| 2026-04-29 09:31 | 44.03737 | 125.75459 | 1697 ft | 151 kts | 222° |
| 2026-04-29 09:31 | 44.03002 | 125.74430 | 1493 ft | 146 kts | 240° |
| 2026-04-29 09:31 | 44.02452 | 125.73232 | 1290 ft | 148 kts | 237° |
| 2026-04-29 09:32 | 44.01848 | 125.72094 | 1098 ft | 144 kts | 231° |
| 2026-04-29 09:32 | 44.01181 | 125.71072 | 919 ft | 140 kts | 231° |
| 2026-04-29 09:32 | 44.00559 | 125.70029 | 741 ft | 139 kts | 229° |
| 2026-04-29 09:32 | 44.00023 | 125.69147 | 712 ft | 90 kts | 229° |
| 2026-04-29 09:33 | 43.99747 | 125.68705 | 712 ft | 40 kts | 230° |
| 2026-04-29 09:33 | 43.99583 | 125.68466 | 712 ft | 28 kts | 218° |
| 2026-04-29 09:33 | 43.99427 | 125.68356 | 712 ft | 12 kts | 200° |
| 2026-04-29 09:33 | 43.99419 | 125.68353 | 712 ft | 0 kts | 200° |
| 2026-04-29 09:34 | 43.99411 | 125.68348 | 712 ft | 3 kts | 200° |
| 2026-04-29 09:34 | 43.99366 | 125.68340 | 712 ft | 7 kts | 148° |
| 2026-04-29 09:34 | 43.99345 | 125.68411 | 712 ft | 8 kts | 66° |
| 2026-04-29 09:35 | 43.99362 | 125.68497 | 712 ft | 10 kts | 116° |
| 2026-04-29 09:35 | 43.99309 | 125.68574 | 712 ft | 12 kts | 141° |
| 2026-04-29 09:35 | 43.99298 | 125.68645 | 712 ft | 9 kts | 63° |
| 2026-04-29 09:35 | 43.99320 | 125.68699 | 712 ft | 2 kts | 91° |
| 2026-04-29 09:36 | 43.99309 | 125.68733 | 712 ft | 4 kts | 128° |
| 2026-04-29 09:36 | 43.99297 | 125.68752 | 712 ft | 4 kts | 134° |
| 2026-04-29 09:36 | 43.99280 | 125.68773 | 712 ft | 2 kts | 139° |
| 2026-04-29 09:36 | 43.99272 | 125.68784 | 712 ft | 0 kts | 139° |
| 2026-04-29 09:37 | 43.99271 | 125.68784 | 712 ft | 0 kts | 139° |